createdAt,value
2019-04-06T00:01:16.567Z,62.34
2019-04-06T00:06:20.682Z,62.45
2019-04-06T00:11:24.770Z,61.75
2019-04-06T00:16:28.829Z,61.75
2019-04-06T00:21:32.880Z,62.19
2019-04-06T00:26:37.064Z,62.23
2019-04-06T00:31:58.766Z,61.98
2019-04-06T00:37:03.042Z,61.98
2019-04-06T00:42:07.168Z,61.98
2019-04-06T00:47:11.205Z,61.75
2019-04-06T00:52:15.285Z,61.94
2019-04-06T00:57:19.429Z,62.02
2019-04-06T01:02:23.540Z,62.01
2019-04-06T01:07:27.621Z,62.33
2019-04-06T01:12:31.663Z,62.17
2019-04-06T01:17:35.782Z,61.99
2019-04-06T01:22:39.781Z,61.78
2019-04-06T01:27:43.885Z,62.40
2019-04-06T01:32:47.916Z,62.49
2019-04-06T01:37:51.961Z,62.57
2019-04-06T01:42:55.952Z,62.18
2019-04-06T01:47:59.976Z,62.38
2019-04-06T01:53:04.034Z,62.38
2019-04-06T01:58:08.130Z,62.35
2019-04-06T02:03:12.195Z,62.40
2019-04-06T02:08:16.272Z,62.65
2019-04-06T02:13:20.296Z,62.44
2019-04-06T02:18:24.414Z,63.04
2019-04-06T02:23:28.427Z,62.73
2019-04-06T02:28:32.513Z,63.19
2019-04-06T02:33:46.921Z,63.38
2019-04-06T02:39:09.010Z,63.13
2019-04-06T02:44:13.089Z,63.28
2019-04-06T02:49:17.105Z,63.28
2019-04-06T02:54:21.177Z,63.43
2019-04-06T02:59:25.763Z,63.43
2019-04-06T03:04:29.916Z,63.97
2019-04-06T03:09:34.347Z,64.32
2019-04-06T03:14:38.503Z,64.21
2019-04-06T03:19:42.642Z,64.29
2019-04-06T03:24:46.819Z,64.50
2019-04-06T03:29:58.279Z,64.15
2019-04-06T03:34:56.652Z,64.07
2019-04-06T03:40:00.682Z,64.07
2019-04-06T03:45:05.091Z,64.48
2019-04-06T03:50:10.156Z,64.35
2019-04-06T03:55:14.244Z,64.35
2019-04-06T04:00:18.507Z,64.57
2019-04-06T04:05:22.487Z,64.57
2019-04-06T04:10:36.218Z,64.89
2019-04-06T04:15:40.479Z,65.22
2019-04-06T04:20:44.505Z,65.52
2019-04-06T04:25:48.521Z,65.52
2019-04-06T04:30:52.541Z,65.21
2019-04-06T04:35:56.545Z,65.25
2019-04-06T04:41:00.533Z,65.71
2019-04-06T04:46:04.733Z,65.84
2019-04-06T04:51:08.972Z,65.57
2019-04-06T04:56:13.251Z,66.05
2019-04-06T05:01:17.264Z,66.05
2019-04-06T05:06:21.415Z,65.70
2019-04-06T05:11:25.442Z,65.98
2019-04-06T05:16:29.478Z,66.37
2019-04-06T05:21:33.477Z,66.08
2019-04-06T05:26:38.394Z,66.42
2019-04-06T05:31:42.556Z,66.09
2019-04-06T05:36:46.542Z,66.09
2019-04-06T05:41:51.173Z,66.11
2019-04-06T05:46:55.215Z,66.15
2019-04-06T05:51:59.242Z,66.78
2019-04-06T05:57:03.215Z,66.35
2019-04-06T06:02:07.811Z,66.45
2019-04-06T06:07:13.267Z,66.58
2019-04-06T06:12:17.258Z,66.28
2019-04-06T06:17:21.257Z,66.85
2019-04-06T06:22:25.245Z,66.72
2019-04-06T06:27:29.354Z,66.72
2019-04-06T06:32:33.420Z,67.13
2019-04-06T06:37:38.758Z,66.83
2019-04-06T06:42:42.859Z,66.48
2019-04-06T06:47:46.880Z,66.21
2019-04-06T06:52:50.875Z,66.10
2019-04-06T06:57:54.900Z,66.10
2019-04-06T07:02:58.970Z,60.90
2019-04-06T07:08:02.987Z,61.96
2019-04-06T07:13:07.340Z,60.83
2019-04-06T07:18:11.442Z,59.60
2019-04-06T07:23:15.474Z,60.50
2019-04-06T07:28:19.563Z,60.21
2019-04-06T07:33:23.591Z,61.15
2019-04-06T07:38:28.112Z,61.23
2019-04-06T07:43:32.211Z,61.25
2019-04-06T07:48:36.447Z,61.22
2019-04-06T07:53:40.778Z,61.95
2019-04-06T07:58:49.313Z,62.36
2019-04-06T08:03:50.857Z,61.90
2019-04-06T08:08:54.880Z,62.27
2019-04-06T08:13:58.987Z,62.27
2019-04-06T08:19:03.338Z,62.38
2019-04-06T08:24:07.594Z,62.29
2019-04-06T08:29:11.657Z,62.33
2019-04-06T08:34:15.744Z,61.73
2019-04-06T08:39:20.072Z,61.54
2019-04-06T08:44:24.200Z,62.00
2019-04-06T08:49:28.429Z,62.00
2019-04-06T08:54:32.473Z,61.66
2019-04-06T08:59:36.621Z,61.35
2019-04-06T09:04:40.824Z,61.14
2019-04-06T09:09:44.919Z,61.73
2019-04-06T09:14:49.088Z,61.57
2019-04-06T09:19:53.197Z,61.60
2019-04-06T09:24:57.315Z,61.56
2019-04-06T09:30:01.728Z,61.50
2019-04-06T09:35:06.835Z,61.50
2019-04-06T09:40:13.241Z,61.41
2019-04-06T09:45:36.699Z,61.18
2019-04-06T09:51:11.620Z,61.29
2019-04-06T09:56:47.136Z,61.39
2019-04-06T10:02:10.294Z,61.68
2019-04-06T10:07:33.371Z,61.48
2019-04-06T10:13:03.118Z,61.21
2019-04-06T10:18:35.634Z,61.62
2019-04-06T10:24:01.441Z,61.48
2019-04-06T10:29:27.606Z,61.46
2019-04-06T10:34:41.136Z,61.46
2019-04-06T10:40:01.539Z,61.50
2019-04-06T10:45:24.351Z,61.67
2019-04-06T10:50:37.497Z,61.36
2019-04-06T10:55:47.202Z,61.26
2019-04-06T11:01:04.710Z,61.26
2019-04-06T11:06:23.166Z,61.59
2019-04-06T11:11:37.375Z,62.06
2019-04-06T11:16:57.738Z,60.27
2019-04-06T11:22:11.075Z,60.27
2019-04-06T11:27:34.383Z,59.73
2019-04-06T11:32:48.083Z,60.15
2019-04-06T11:38:03.082Z,60.15
2019-04-06T11:43:15.733Z,59.03
2019-04-06T11:48:29.444Z,58.67
2019-04-06T11:53:52.101Z,58.42
2019-04-06T11:59:17.882Z,57.97
2019-04-06T12:04:43.158Z,58.47
2019-04-06T12:10:05.088Z,57.73
2019-04-06T12:15:18.427Z,57.73
2019-04-06T12:20:40.533Z,57.75
2019-04-06T12:25:56.903Z,56.92
2019-04-06T12:31:11.001Z,57.53
2019-04-06T12:36:33.250Z,57.67
2019-04-06T12:41:55.239Z,56.97
2019-04-06T12:47:12.212Z,57.11
2019-04-06T12:52:29.218Z,57.55
2019-04-06T12:57:41.897Z,57.16
2019-04-06T13:02:56.796Z,56.42
2019-04-06T13:08:25.931Z,56.42
2019-04-06T13:14:04.457Z,55.47
2019-04-06T13:19:27.572Z,55.50
2019-04-06T13:24:44.762Z,55.50
2019-04-06T13:30:10.792Z,55.57
2019-04-06T13:35:24.238Z,55.25
2019-04-06T13:40:46.645Z,54.49
2019-04-06T13:46:10.133Z,55.31
2019-04-06T13:51:24.266Z,55.41
2019-04-06T13:56:46.855Z,53.18
2019-04-06T14:02:07.527Z,53.34
2019-04-06T14:07:19.214Z,53.45
2019-04-06T14:12:48.332Z,53.45
2019-04-06T14:18:10.352Z,53.13
2019-04-06T14:23:45.555Z,53.13
2019-04-06T14:29:08.644Z,53.19
2019-04-06T14:34:37.674Z,53.25
2019-04-06T14:39:59.805Z,52.98
2019-04-06T14:45:15.603Z,52.98
2019-04-06T14:50:29.563Z,53.92
2019-04-06T14:55:50.840Z,53.34
2019-04-06T15:01:43.648Z,52.55
2019-04-06T15:07:10.705Z,52.39
2019-04-06T15:12:19.299Z,52.39
2019-04-06T15:17:29.249Z,52.69
2019-04-06T15:22:45.276Z,52.69
2019-04-06T15:27:59.816Z,52.33
2019-04-06T15:33:22.108Z,52.79
2019-04-06T15:38:44.051Z,52.50
2019-04-06T15:44:07.322Z,53.13
2019-04-06T15:49:19.715Z,53.13
2019-04-06T15:54:38.953Z,52.80
2019-04-06T16:00:02.040Z,47.11
2019-04-06T16:05:32.937Z,50.39
2019-04-06T16:11:01.472Z,51.42
2019-04-06T16:16:12.638Z,51.82
2019-04-06T16:21:30.489Z,51.72
2019-04-06T16:26:46.301Z,52.15
2019-04-06T16:31:58.033Z,52.75
2019-04-06T16:37:13.239Z,53.14
2019-04-06T16:42:31.422Z,53.14
2019-04-06T16:48:00.670Z,55.10
2019-04-06T16:53:20.313Z,55.10
2019-04-06T16:58:39.014Z,56.85
2019-04-06T17:03:56.143Z,57.13
2019-04-06T17:09:08.116Z,55.61
2019-04-06T17:14:40.225Z,55.61
2019-04-06T17:19:55.879Z,55.71
2019-04-06T17:25:21.743Z,55.13
2019-04-06T17:30:39.643Z,54.71
2019-04-06T17:35:53.453Z,55.10
2019-04-06T17:41:20.538Z,55.23
2019-04-06T17:46:43.615Z,54.91
2019-04-06T17:52:06.583Z,56.04
2019-04-06T17:57:30.082Z,56.21
2019-04-06T18:03:02.517Z,56.91
2019-04-06T18:08:37.819Z,56.77
2019-04-06T18:13:51.263Z,56.40
2019-04-06T18:18:55.492Z,57.03
2019-04-06T18:23:59.747Z,56.74
2019-04-06T18:29:03.936Z,57.16
2019-04-06T18:34:08.189Z,56.87
2019-04-06T18:39:12.437Z,56.41
2019-04-06T18:44:16.590Z,57.10
2019-04-06T18:49:20.636Z,56.84
2019-04-06T18:54:25.293Z,56.84
2019-04-06T18:59:29.488Z,57.11
2019-04-06T19:04:33.946Z,57.14
2019-04-06T19:09:38.279Z,57.14
2019-04-06T19:14:42.810Z,56.81
2019-04-06T19:19:46.891Z,57.30
2019-04-06T19:24:51.069Z,57.30
2019-04-06T19:29:55.219Z,57.68
2019-04-06T19:34:59.517Z,57.44
2019-04-06T19:40:03.930Z,57.61
2019-04-06T19:45:09.176Z,57.78
2019-04-06T19:50:13.799Z,57.78
2019-04-06T19:55:18.159Z,57.75
2019-04-06T20:00:22.792Z,57.87
2019-04-06T20:05:27.278Z,57.87
2019-04-06T20:10:31.712Z,57.90
2019-04-06T20:15:36.423Z,58.04
2019-04-06T20:20:40.399Z,58.49
2019-04-06T20:25:44.523Z,58.49
2019-04-06T20:30:48.749Z,58.64
2019-04-06T20:35:53.217Z,58.64
2019-04-06T20:40:57.850Z,58.77
2019-04-06T20:46:02.068Z,58.77
2019-04-06T20:51:06.220Z,58.84
2019-04-06T20:56:10.728Z,59.10
2019-04-06T21:01:14.879Z,59.25
2019-04-06T21:06:19.181Z,59.02
2019-04-06T21:11:23.348Z,59.02
2019-04-06T21:16:27.598Z,59.46
2019-04-06T21:21:32.751Z,59.54
2019-04-06T21:26:36.889Z,59.54
2019-04-06T21:31:40.964Z,60.10
2019-04-06T21:36:45.053Z,59.57
2019-04-06T21:41:49.752Z,59.57
2019-04-06T21:46:53.906Z,59.95
2019-04-06T21:51:57.945Z,59.94
2019-04-06T21:57:01.981Z,59.94
2019-04-06T22:02:07.079Z,59.93
2019-04-06T22:07:11.418Z,59.93
2019-04-06T22:12:15.507Z,60.58
2019-04-06T22:17:19.890Z,60.20
2019-04-06T22:22:23.945Z,60.22
2019-04-06T22:27:28.004Z,60.79
2019-04-06T22:32:32.311Z,60.79
2019-04-06T22:37:37.094Z,60.65
2019-04-06T22:42:41.265Z,60.65
2019-04-06T22:47:45.290Z,60.84
2019-04-06T22:52:49.377Z,60.61
2019-04-06T22:57:53.448Z,60.83
2019-04-06T23:03:10.473Z,60.90
2019-04-06T23:08:14.620Z,61.22
2019-04-06T23:13:18.687Z,61.35
2019-04-06T23:18:23.086Z,61.12
2019-04-06T23:23:27.207Z,61.08
2019-04-06T23:28:31.840Z,61.15
2019-04-06T23:33:35.969Z,61.15
2019-04-06T23:38:40.456Z,61.00
2019-04-06T23:43:44.782Z,60.76
2019-04-06T23:48:49.848Z,61.17
2019-04-06T23:53:53.996Z,61.23
2019-04-06T23:58:58.071Z,61.23
